Time;durP1;ratioP1;P1;durP2;ratioP2;P2;SDS_P1;SDS_P2;PMS_P1;PMS_P2;Temp;Humidity;BMP_temperature;BMP_pressure;BME280_temperature;BME280_humidity;BME280_pressure;Samples;Min_cycle;Max_cycle;Signal;HPM_P1;HPM_P2
2023/06/21 00:00:37;;;;;;;9.30;5.00;;;;;;;17.44;77.51;92898.41;4751495;30;20047;-77
2023/06/21 00:03:04;;;;;;;7.65;4.63;;;;;;;17.45;77.21;92910.53;4751460;30;20047;-77
2023/06/21 00:05:30;;;;;;;8.23;5.28;;;;;;;17.42;77.57;92906.66;4750129;30;20055;-76
2023/06/21 00:07:56;;;;;;;8.00;4.90;;;;;;;17.39;77.14;92903.88;4751638;30;20046;-77
2023/06/21 00:10:25;;;;;;;8.02;4.25;;;;;;;17.37;76.76;92900.78;4752335;30;20032;-76
2023/06/21 00:12:51;;;;;;;7.60;4.70;;;;;;;17.38;77.41;92899.66;4751279;30;20133;-77
2023/06/21 00:15:17;;;;;;;9.25;4.90;;;;;;;17.38;76.88;92911.03;4752113;30;20032;-77
2023/06/21 00:17:42;;;;;;;9.70;5.20;;;;;;;17.35;77.08;92901.06;4750462;30;20064;-77
2023/06/21 00:20:10;;;;;;;7.80;4.70;;;;;;;17.33;77.07;92913.06;4751279;30;20127;-77
2023/06/21 00:22:37;;;;;;;7.03;4.55;;;;;;;17.33;77.47;92907.78;4752021;30;20048;-77
2023/06/21 00:25:03;;;;;;;9.30;4.60;;;;;;;17.33;77.98;92902.50;4766199;30;20067;-76
2023/06/21 00:27:29;;;;;;;9.23;4.60;;;;;;;17.29;79.42;92920.84;4767594;30;20043;-76
2023/06/21 00:29:54;;;;;;;8.57;4.82;;;;;;;17.27;78.87;92915.91;4768557;30;20096;-77
2023/06/21 00:32:20;;;;;;;7.75;4.90;;;;;;;17.26;78.59;92924.16;4767087;30;20487;-77
2023/06/21 00:34:47;;;;;;;12.95;4.70;;;;;;;17.25;77.95;92922.59;4765961;30;20138;-77
2023/06/21 00:37:16;;;;;;;7.60;4.88;;;;;;;17.25;77.94;92926.03;4769858;30;20088;-77
2023/06/21 00:39:42;;;;;;;10.90;4.75;;;;;;;17.23;78.21;92920.28;4753188;30;20134;-77
2023/06/21 00:42:09;;;;;;;13.63;4.68;;;;;;;17.21;78.48;92919.03;4767817;30;20100;-78
2023/06/21 00:44:35;;;;;;;7.93;4.70;;;;;;;17.21;78.72;92929.63;4768352;30;20061;-77
2023/06/21 00:47:02;;;;;;;9.05;4.35;;;;;;;17.17;79.56;92924.16;4766759;30;20036;-77
2023/06/21 00:49:27;;;;;;;8.70;4.53;;;;;;;17.17;79.28;92928.69;4738582;30;20048;-77
2023/06/21 00:51:57;;;;;;;9.65;4.43;;;;;;;17.16;78.87;92937.72;4769413;30;20044;-77
2023/06/21 00:54:26;;;;;;;7.63;4.65;;;;;;;17.12;78.76;92931.50;4767797;30;20048;-77
2023/06/21 00:56:53;;;;;;;10.55;4.68;;;;;;;17.08;78.50;92926.06;4769182;30;20036;-77
2023/06/21 00:59:19;;;;;;;10.35;5.38;;;;;;;17.06;78.23;92930.88;4751525;30;20043;-77
2023/06/21 01:01:45;;;;;;;8.48;4.65;;;;;;;17.05;78.18;92921.41;4767831;30;20502;-77
2023/06/21 01:04:12;;;;;;;13.15;4.90;;;;;;;17.02;78.92;92914.09;4769469;30;20406;-77
2023/06/21 01:07:03;;;;;;;8.70;4.85;;;;;;;16.99;79.85;92914.75;4769485;30;20046;-77
2023/06/21 01:09:46;;;;;;;8.63;4.88;;;;;;;16.95;80.03;92913.81;4752903;30;20050;-77
2023/06/21 01:12:36;;;;;;;10.00;4.45;;;;;;;16.96;79.82;92912.72;4766306;30;20039;-78
2023/06/21 01:15:11;;;;;;;7.38;4.28;;;;;;;16.96;79.09;92913.50;4769256;30;20077;-77
2023/06/21 01:17:40;;;;;;;10.57;4.80;;;;;;;16.94;78.80;92909.63;4769486;30;20048;-77
2023/06/21 01:20:13;;;;;;;9.10;4.47;;;;;;;16.93;78.52;92913.34;4753491;30;20047;-77
2023/06/21 01:22:45;;;;;;;9.25;4.53;;;;;;;16.93;78.47;92900.13;4753334;30;20115;-78
2023/06/21 01:25:33;;;;;;;10.57;4.57;;;;;;;16.94;78.83;92901.69;4766499;30;20047;-77
2023/06/21 01:28:41;;;;;;;8.23;4.40;;;;;;;16.95;78.64;92897.94;4738290;30;20105;-77
2023/06/21 01:31:09;;;;;;;9.13;4.63;;;;;;;16.93;79.10;92895.63;4766984;30;20047;-77
2023/06/21 01:33:35;;;;;;;9.73;4.82;;;;;;;16.89;79.54;92899.19;4767772;30;20047;-77
2023/06/21 01:36:03;;;;;;;11.93;4.75;;;;;;;16.88;79.75;92902.94;4752230;30;20124;-77
2023/06/21 01:38:29;;;;;;;10.35;4.60;;;;;;;16.83;80.46;92895.94;4751110;30;20431;-77
2023/06/21 01:40:56;;;;;;;9.43;4.65;;;;;;;16.84;80.19;92898.28;4749982;30;20032;-77
2023/06/21 01:43:23;;;;;;;9.15;4.65;;;;;;;16.85;80.04;92888.47;4749727;30;20040;-77
2023/06/21 01:45:52;;;;;;;9.20;4.55;;;;;;;16.84;80.41;92886.91;4751974;30;20060;-77
2023/06/21 01:48:18;;;;;;;9.85;4.90;;;;;;;16.83;80.58;92888.78;4749965;30;20040;-77
2023/06/21 01:50:45;;;;;;;10.18;5.50;;;;;;;16.83;79.73;92888.78;4750375;30;20032;-77
2023/06/21 01:53:13;;;;;;;8.85;4.88;;;;;;;16.84;79.58;92881.63;4750792;30;20044;-77
2023/06/21 01:55:44;;;;;;;13.20;4.68;;;;;;;16.84;80.43;92886.91;4750863;30;20115;-77
2023/06/21 01:58:12;;;;;;;8.35;4.40;;;;;;;16.85;80.00;92883.97;4749760;30;20108;-77
2023/06/21 02:00:38;;;;;;;8.77;4.38;;;;;;;16.88;79.62;92876.50;4749468;30;20071;-77
2023/06/21 02:03:09;;;;;;;8.48;4.18;;;;;;;16.90;78.94;92880.38;4750788;30;20048;-78
2023/06/21 02:05:35;;;;;;;9.05;4.25;;;;;;;16.91;78.39;92878.50;4750595;30;20454;-77
2023/06/21 02:08:04;;;;;;;8.75;4.50;;;;;;;16.93;77.97;92878.97;4749594;30;20082;-77
2023/06/21 02:10:31;;;;;;;8.40;4.25;;;;;;;16.93;77.15;92884.25;4734889;30;20037;-77
2023/06/21 02:12:57;;;;;;;9.77;4.68;;;;;;;16.92;77.72;92885.38;4750910;30;20121;-77
2023/06/21 02:15:23;;;;;;;9.65;4.60;;;;;;;16.92;77.82;92880.06;4750271;30;20040;-77
2023/06/21 02:17:50;;;;;;;11.57;4.30;;;;;;;16.92;77.79;92880.84;4749709;30;20051;-77
2023/06/21 02:20:17;;;;;;;8.65;4.43;;;;;;;16.93;77.79;92879.75;4750664;30;20040;-78
2023/06/21 02:22:43;;;;;;;10.43;4.70;;;;;;;16.94;77.97;92883.94;4750599;30;20044;-77
2023/06/21 02:25:11;;;;;;;10.27;4.88;;;;;;;16.95;77.95;92882.06;4765107;30;20050;-77
2023/06/21 02:27:37;;;;;;;9.38;4.63;;;;;;;16.97;76.97;92882.53;4767558;30;20130;-77
2023/06/21 02:30:04;;;;;;;8.60;4.20;;;;;;;16.96;77.03;92881.78;4767227;30;20118;-77
2023/06/21 02:32:30;;;;;;;9.57;4.75;;;;;;;16.96;76.26;92878.34;4768285;30;20070;-78
2023/06/21 02:34:56;;;;;;;8.82;4.40;;;;;;;16.97;77.34;92880.66;4751881;30;20051;-78
2023/06/21 02:37:22;;;;;;;11.85;4.68;;;;;;;16.94;78.60;92880.53;4766986;30;20526;-77
2023/06/21 02:39:47;;;;;;;9.65;4.63;;;;;;;16.90;79.13;92880.38;4767362;30;20071;-78
2023/06/21 02:42:13;;;;;;;7.15;4.03;;;;;;;16.86;79.64;92879.44;4759286;30;20052;-77
2023/06/21 02:44:39;;;;;;;9.13;4.38;;;;;;;16.81;79.82;92885.69;4752464;30;20115;-78
2023/06/21 02:47:04;;;;;;;14.30;4.68;;;;;;;16.77;80.09;92882.06;4759947;30;20035;-78
2023/06/21 02:49:36;;;;;;;10.07;4.50;;;;;;;16.76;79.68;92871.84;4755632;30;20040;-77
2023/06/21 02:52:03;;;;;;;7.93;4.32;;;;;;;16.72;79.32;92874.31;4755730;30;20040;-78
2023/06/21 02:54:29;;;;;;;12.18;4.18;;;;;;;16.71;78.98;92877.31;4770005;30;20088;-77
2023/06/21 02:56:55;;;;;;;11.90;4.65;;;;;;;16.67;79.95;92876.38;4755784;30;20088;-77
2023/06/21 02:59:20;;;;;;;9.95;4.30;;;;;;;16.62;80.00;92874.66;4748670;30;20040;-78
2023/06/21 03:01:47;;;;;;;11.13;4.25;;;;;;;16.58;80.25;92887.72;4761064;30;20078;-77
2023/06/21 03:04:16;;;;;;;9.85;4.68;;;;;;;16.57;79.96;92880.09;4769712;30;20055;-77
2023/06/21 03:06:42;;;;;;;11.77;3.88;;;;;;;16.55;79.56;92879.63;4771095;30;20510;-77
2023/06/21 03:09:08;;;;;;;14.77;4.00;;;;;;;16.54;79.96;92872.81;4771621;30;20440;-77
2023/06/21 03:11:34;;;;;;;12.68;4.63;;;;;;;16.52;80.30;92882.91;4764581;30;20089;-77
2023/06/21 03:13:59;;;;;;;9.50;4.47;;;;;;;16.51;80.50;92884.78;4737270;30;20107;-77
2023/06/21 03:16:26;;;;;;;12.23;4.32;;;;;;;16.50;80.59;92874.50;4752015;30;20467;-77
2023/06/21 03:18:51;;;;;;;14.80;4.47;;;;;;;16.49;80.80;92884.31;4752825;30;20095;-77
2023/06/21 03:21:17;;;;;;;11.25;4.40;;;;;;;16.47;81.01;92889.13;4752667;30;20059;-78
2023/06/21 03:23:43;;;;;;;8.93;4.40;;;;;;;16.45;80.85;92886.03;4737573;30;20511;-78
2023/06/21 03:26:10;;;;;;;14.43;4.60;;;;;;;16.42;80.65;92892.72;4751439;30;20036;-78
2023/06/21 03:28:35;;;;;;;11.15;4.65;;;;;;;16.41;81.24;92895.66;4752376;30;20050;-78
2023/06/21 03:31:01;;;;;;;11.07;4.93;;;;;;;16.39;81.64;92887.25;4737809;30;20509;-77
2023/06/21 03:33:27;;;;;;;9.95;4.45;;;;;;;16.37;81.62;92889.44;4751421;30;20048;-77
2023/06/21 03:35:53;;;;;;;9.90;4.50;;;;;;;16.36;81.33;92898.47;4752013;30;20048;-78
2023/06/21 03:38:19;;;;;;;10.75;5.20;;;;;;;16.33;81.68;92902.50;4751578;30;20400;-77
2023/06/21 03:40:46;;;;;;;9.55;4.72;;;;;;;16.33;81.49;92899.88;4736780;30;20036;-77
2023/06/21 03:43:13;;;;;;;10.32;4.60;;;;;;;16.34;80.96;92896.13;4751474;30;20419;-77
2023/06/21 03:45:40;;;;;;;8.73;4.43;;;;;;;16.36;80.85;92904.53;4751129;30;20118;-77
2023/06/21 03:48:07;;;;;;;8.30;4.30;;;;;;;16.37;81.00;92895.53;4736512;30;20474;-77
2023/06/21 03:50:37;;;;;;;11.25;4.45;;;;;;;16.38;80.95;92898.94;4764957;30;20048;-77
2023/06/21 03:53:03;;;;;;;9.68;4.72;;;;;;;16.36;81.70;92907.16;4750279;30;20044;-77
2023/06/21 03:55:29;;;;;;;7.63;4.35;;;;;;;16.37;81.53;92906.09;4721924;30;20036;-78
2023/06/21 03:57:55;;;;;;;11.50;4.70;;;;;;;16.39;82.28;92916.31;4752503;30;20106;-77
2023/06/21 04:00:21;;;;;;;11.07;4.55;;;;;;;16.39;83.15;92922.41;4751155;30;20048;-78
2023/06/21 04:02:49;;;;;;;10.38;5.03;;;;;;;16.40;82.89;92913.38;4762967;30;20043;-78
2023/06/21 04:05:15;;;;;;;9.38;4.57;;;;;;;16.41;83.27;92922.88;4753984;30;20035;-77
2023/06/21 04:07:40;;;;;;;9.95;4.82;;;;;;;16.43;83.13;92925.97;4768833;30;20052;-77
2023/06/21 04:10:08;;;;;;;9.10;4.28;;;;;;;16.46;83.36;92921.94;4754079;30;20104;-78
2023/06/21 04:12:34;;;;;;;8.82;5.03;;;;;;;16.48;84.44;92921.59;4770073;30;20120;-77
2023/06/21 04:15:04;;;;;;;9.55;4.75;;;;;;;16.49;84.89;92925.81;4767257;30;20063;-78
2023/06/21 04:17:31;;;;;;;8.75;4.40;;;;;;;16.51;84.77;92921.78;4768385;30;20083;-77
2023/06/21 04:19:56;;;;;;;12.65;4.28;;;;;;;16.55;85.44;92921.91;4769773;30;20436;-77
2023/06/21 04:22:23;;;;;;;11.38;5.03;;;;;;;16.58;84.86;92913.38;4769725;30;20043;-78
2023/06/21 04:24:50;;;;;;;8.32;4.32;;;;;;;16.63;85.14;92913.22;4754887;30;20220;-77
2023/06/21 04:27:15;;;;;;;11.27;5.28;;;;;;;16.67;88.17;92916.78;4735423;30;20107;-77
2023/06/21 04:29:41;;;;;;;20.23;5.35;;;;;;;16.72;89.63;92918.50;4750167;30;20059;-77
2023/06/21 04:32:08;;;;;;;12.75;5.20;;;;;;;16.72;91.55;92916.63;4753424;30;20119;-77
2023/06/21 04:34:34;;;;;;;9.95;4.90;;;;;;;16.75;90.80;92913.38;4751827;30;20043;-77
2023/06/21 04:37:05;;;;;;;7.03;4.30;;;;;;;16.81;89.94;92919.28;4750464;30;20469;-77
2023/06/21 04:39:31;;;;;;;8.80;4.80;;;;;;;16.87;90.77;92906.69;4751670;30;20105;-77
2023/06/21 04:42:00;;;;;;;9.13;4.78;;;;;;;16.93;91.06;92918.63;4752491;30;20055;-77
2023/06/21 04:44:27;;;;;;;9.73;5.00;;;;;;;16.98;91.12;92916.63;4750718;30;20057;-77
2023/06/21 04:46:54;;;;;;;9.57;4.53;;;;;;;17.05;91.57;92924.06;4751636;30;20056;-77
2023/06/21 04:49:19;;;;;;;8.65;4.80;;;;;;;17.12;91.66;92921.69;4751760;30;20503;-78
2023/06/21 04:51:45;;;;;;;8.95;4.60;;;;;;;17.17;92.28;92924.16;4751946;30;20024;-77
2023/06/21 04:54:11;;;;;;;8.63;4.43;;;;;;;17.25;91.80;92928.66;4751097;30;20244;-77
2023/06/21 04:56:37;;;;;;;10.05;4.78;;;;;;;17.32;91.03;92924.75;4752274;30;20044;-77
2023/06/21 04:59:03;;;;;;;12.23;5.28;;;;;;;17.39;89.84;92928.47;4752067;30;20048;-77
2023/06/21 05:01:32;;;;;;;12.57;4.93;;;;;;;17.47;89.36;92918.91;4761294;30;20113;-78
2023/06/21 05:03:58;;;;;;;7.60;4.68;;;;;;;17.56;89.12;92922.34;4767006;30;20057;-78
2023/06/21 05:06:25;;;;;;;10.95;4.85;;;;;;;17.64;89.46;92926.78;4769237;30;20047;-78
2023/06/21 05:08:52;;;;;;;9.55;4.95;;;;;;;17.73;89.22;92923.34;4769739;30;20051;-78
2023/06/21 05:11:20;;;;;;;12.82;4.53;;;;;;;17.83;88.73;92931.72;4768955;30;20047;-78
2023/06/21 05:13:46;;;;;;;11.55;4.85;;;;;;;17.92;88.15;92933.53;4766417;30;20040;-78
2023/06/21 05:16:11;;;;;;;10.68;4.82;;;;;;;18.02;87.86;92926.00;4768928;30;20052;-77
2023/06/21 05:18:38;;;;;;;8.50;4.35;;;;;;;18.14;88.41;92924.53;4767963;30;20143;-78
2023/06/21 05:21:04;;;;;;;9.02;4.80;;;;;;;18.26;88.03;92927.22;4768865;30;20048;-77
2023/06/21 05:23:30;;;;;;;12.18;5.50;;;;;;;18.39;89.06;92926.19;4768934;30;20466;-77
2023/06/21 05:25:55;;;;;;;9.10;4.82;;;;;;;18.50;89.20;92931.91;4767267;30;20047;-77
2023/06/21 05:28:21;;;;;;;14.63;4.70;;;;;;;18.60;90.37;92936.03;4765596;30;20483;-77
2023/06/21 05:30:47;;;;;;;13.15;4.43;;;;;;;18.69;90.34;92940.16;4767874;30;20357;-78
2023/06/21 05:33:14;;;;;;;12.32;5.03;;;;;;;18.80;89.79;92935.28;4769370;30;20039;-77
2023/06/21 05:35:40;;;;;;;10.38;4.93;;;;;;;18.93;91.67;92938.72;4762260;30;20408;-78
2023/06/21 05:38:06;;;;;;;14.18;4.45;;;;;;;19.06;90.54;92942.97;4735473;30;20048;-78
2023/06/21 05:40:32;;;;;;;11.38;4.40;;;;;;;19.21;90.30;92954.84;4735683;30;20040;-78
2023/06/21 05:43:01;;;;;;;12.13;4.68;;;;;;;19.32;89.81;92945.38;4750359;30;20044;-78
2023/06/21 05:45:29;;;;;;;8.10;4.43;;;;;;;19.51;88.54;92950.13;4751053;30;20052;-78
2023/06/21 05:47:57;;;;;;;9.68;4.53;;;;;;;19.76;85.79;92956.28;4751542;30;20032;-78
2023/06/21 05:50:23;;;;;;;11.63;4.45;;;;;;;20.06;84.24;92960.59;4752391;30;20496;-78
2023/06/21 05:52:48;;;;;;;9.00;4.50;;;;;;;20.33;81.72;92964.44;4752051;30;20059;-78
2023/06/21 05:55:14;;;;;;;9.15;4.68;;;;;;;20.62;79.89;92965.28;4751404;30;20036;-78
2023/06/21 05:57:40;;;;;;;8.20;4.60;;;;;;;20.91;78.56;92962.31;4752299;30;20076;-79
2023/06/21 06:00:09;;;;;;;9.35;4.97;;;;;;;21.23;79.60;92967.72;4735883;30;20051;-78
2023/06/21 06:02:39;;;;;;;10.75;4.93;;;;;;;21.59;76.79;92960.66;4752687;30;20105;-78
2023/06/21 06:05:05;;;;;;;16.58;4.55;;;;;;;21.98;71.40;92964.28;4736252;30;20052;-78
2023/06/21 06:07:31;;;;;;;10.00;5.05;;;;;;;22.20;72.14;92962.88;4751983;30;20124;-78
2023/06/21 06:09:56;;;;;;;10.27;5.05;;;;;;;22.45;72.01;92965.34;4736464;30;20333;-78
2023/06/21 06:12:22;;;;;;;12.82;5.30;;;;;;;22.71;71.59;92955.97;4750727;30;20040;-78
2023/06/21 06:14:48;;;;;;;7.90;5.30;;;;;;;22.80;73.98;92954.63;4751927;30;20082;-78
2023/06/21 06:17:15;;;;;;;7.65;4.82;;;;;;;23.07;71.60;92960.91;4753828;30;20055;-78
2023/06/21 06:19:41;;;;;;;12.40;5.72;;;;;;;23.33;70.16;92954.13;4756493;30;20148;-78
2023/06/21 06:22:06;;;;;;;8.13;4.60;;;;;;;23.55;66.18;92959.84;4773489;30;20122;-78
2023/06/21 06:24:32;;;;;;;9.60;4.93;;;;;;;23.82;66.80;92958.03;4771571;30;20043;-78
2023/06/21 06:26:58;;;;;;;9.40;4.82;;;;;;;24.07;64.73;92969.09;4773617;30;20448;-78
2023/06/21 06:29:24;;;;;;;8.93;4.80;;;;;;;24.13;63.49;92973.03;4771959;30;20204;-78
2023/06/21 06:31:49;;;;;;;11.35;4.93;;;;;;;24.16;65.35;92966.97;4773811;30;20130;-78
2023/06/21 06:34:15;;;;;;;9.32;5.20;;;;;;;24.30;65.19;92980.56;4773345;30;20048;-78
2023/06/21 06:36:40;;;;;;;13.15;4.35;;;;;;;24.48;62.65;92986.19;4773593;30;20454;-78
2023/06/21 06:39:07;;;;;;;9.65;5.50;;;;;;;24.48;66.30;92978.16;4772417;30;20035;-78
2023/06/21 06:41:33;;;;;;;12.00;5.28;;;;;;;24.32;69.29;92972.19;4773258;30;20037;-78
2023/06/21 06:44:03;;;;;;;10.73;5.60;;;;;;;23.88;72.85;92968.06;4771958;30;20126;-78
2023/06/21 06:46:28;;;;;;;11.18;5.80;;;;;;;23.55;77.39;92965.19;4773130;30;20131;-78
2023/06/21 06:48:54;;;;;;;8.55;5.72;;;;;;;23.29;75.57;92972.00;4770793;30;20028;-78
2023/06/21 06:51:21;;;;;;;10.25;5.15;;;;;;;23.52;74.18;92965.91;4772817;30;20154;-77
2023/06/21 06:53:47;;;;;;;14.32;5.30;;;;;;;23.77;74.15;92972.47;4771139;30;20044;-77
2023/06/21 06:56:13;;;;;;;8.88;4.82;;;;;;;23.99;70.74;92970.91;4772315;30;20418;-77
2023/06/21 06:58:39;;;;;;;10.93;5.82;;;;;;;23.91;75.35;92966.56;4772744;30;20035;-78
2023/06/21 07:01:06;;;;;;;10.27;5.75;;;;;;;23.86;74.03;92966.88;4769964;30;20040;-78
2023/06/21 07:03:32;;;;;;;10.73;5.30;;;;;;;23.96;69.24;92981.53;4771553;30;20059;-78
2023/06/21 07:05:59;;;;;;;9.73;5.15;;;;;;;23.71;70.53;92979.22;4772183;30;20047;-77
2023/06/21 07:08:25;;;;;;;13.15;5.28;;;;;;;23.66;73.29;92977.63;4771643;30;20038;-77
2023/06/21 07:10:51;;;;;;;11.73;5.72;;;;;;;23.48;76.37;92987.19;4769137;30;20040;-77
2023/06/21 07:13:17;;;;;;;15.73;6.35;;;;;;;23.06;83.05;92974.63;4770881;30;20418;-77
2023/06/21 07:15:44;;;;;;;11.02;6.28;;;;;;;23.19;80.51;92976.00;4754737;30;20102;-78
2023/06/21 07:18:10;;;;;;;11.88;5.60;;;;;;;23.18;78.73;92969.13;4769978;30;20079;-77
2023/06/21 07:20:36;;;;;;;10.23;5.78;;;;;;;23.36;76.05;92968.69;4768043;30;20036;-77
2023/06/21 07:23:02;;;;;;;9.88;5.20;;;;;;;23.54;72.04;92974.34;4769660;30;20220;-78
2023/06/21 07:25:27;;;;;;;12.05;5.93;;;;;;;23.55;71.65;92973.19;4770625;30;20067;-77
2023/06/21 07:27:53;;;;;;;12.25;5.97;;;;;;;23.39;79.34;92967.97;4769989;30;20055;-79
2023/06/21 07:30:20;;;;;;;11.30;5.63;;;;;;;23.20;79.61;92976.78;4770697;30;20044;-78
2023/06/21 07:32:47;;;;;;;8.88;5.90;;;;;;;23.27;79.38;92958.22;4752952;30;20046;-77
2023/06/21 07:35:14;;;;;;;12.50;6.43;;;;;;;23.33;83.94;92967.50;4769431;30;20644;-77
2023/06/21 07:37:42;;;;;;;11.60;6.18;;;;;;;23.32;84.83;92957.16;4770498;30;20040;-77
2023/06/21 07:40:08;;;;;;;8.88;5.15;;;;;;;23.52;79.33;92960.56;4770729;30;20058;-77
2023/06/21 07:42:34;;;;;;;10.57;6.10;;;;;;;23.56;81.68;92956.06;4752295;30;20036;-77
2023/06/21 07:44:59;;;;;;;11.98;6.22;;;;;;;23.76;81.63;92948.78;4768566;30;20280;-77
2023/06/21 07:47:25;;;;;;;9.70;6.20;;;;;;;23.64;80.73;92947.81;4770404;30;20051;-77
2023/06/21 07:49:51;;;;;;;9.95;6.00;;;;;;;23.78;81.11;92947.28;4771145;30;20092;-77
2023/06/21 07:52:17;;;;;;;10.18;5.22;;;;;;;23.62;70.49;92950.06;4747000;30;20119;-77
2023/06/21 07:54:48;;;;;;;8.75;5.57;;;;;;;23.64;71.79;92947.81;4750660;30;20040;-77
2023/06/21 07:57:15;;;;;;;9.25;5.35;;;;;;;23.64;69.17;92955.81;4752231;30;20532;-77
2023/06/21 07:59:41;;;;;;;11.52;5.93;;;;;;;23.69;76.27;92950.16;4753202;30;20470;-77
2023/06/21 08:02:06;;;;;;;14.65;5.82;;;;;;;23.60;76.09;92954.22;4737783;30;20039;-77
2023/06/21 08:04:32;;;;;;;9.75;5.60;;;;;;;23.61;72.26;92947.72;4766251;30;20104;-82
2023/06/21 08:06:58;;;;;;;8.75;5.90;;;;;;;23.67;74.40;92949.00;4757294;30;20097;-77
2023/06/21 08:09:23;;;;;;;8.35;5.75;;;;;;;23.58;79.05;92953.81;4753411;30;20571;-78
2023/06/21 08:11:49;;;;;;;12.40;6.25;;;;;;;23.47;82.50;92946.38;4747331;30;20036;-78
2023/06/21 08:14:14;;;;;;;13.00;6.03;;;;;;;23.39;80.80;92958.03;4748769;30;20039;-78
2023/06/21 08:16:40;;;;;;;12.52;6.35;;;;;;;23.47;81.09;92958.94;4756989;30;20053;-78
2023/06/21 08:19:06;;;;;;;11.70;5.93;;;;;;;23.48;80.49;92966.63;4743081;30;20068;-77
2023/06/21 08:21:32;;;;;;;9.93;5.88;;;;;;;23.59;82.81;92960.69;4752680;30;20515;-77
2023/06/21 08:23:58;;;;;;;11.13;5.70;;;;;;;23.68;79.27;92959.31;4757283;30;20032;-77
2023/06/21 08:26:23;;;;;;;12.88;6.00;;;;;;;23.53;80.01;92960.22;4757624;30;20261;-77
2023/06/21 08:28:49;;;;;;;11.30;6.00;;;;;;;23.52;78.99;92963.22;4752104;30;20121;-77
2023/06/21 08:31:14;;;;;;;9.52;5.57;;;;;;;23.58;74.28;92969.84;4751587;30;20162;-77
2023/06/21 08:33:40;;;;;;;12.43;5.65;;;;;;;23.67;76.46;92967.69;4753192;30;20055;-78
2023/06/21 08:36:06;;;;;;;9.88;5.60;;;;;;;23.68;78.19;92963.88;4754186;30;20558;-77
2023/06/21 08:38:33;;;;;;;12.02;5.47;;;;;;;23.46;73.77;92960.84;4750879;30;20516;-77
2023/06/21 08:41:03;;;;;;;8.20;5.78;;;;;;;23.59;79.78;92947.31;4755978;30;20131;-77
2023/06/21 08:43:29;;;;;;;10.32;5.68;;;;;;;23.66;78.20;92945.56;4765637;30;20044;-77
2023/06/21 08:45:56;;;;;;;11.73;5.97;;;;;;;23.83;74.78;92952.31;4768337;30;20130;-77
2023/06/21 08:48:22;;;;;;;9.75;6.03;;;;;;;23.87;75.58;92955.06;4766973;30;20043;-78
2023/06/21 08:50:52;;;;;;;7.70;4.93;;;;;;;23.96;72.05;92954.81;4759988;30;20389;-78
2023/06/21 08:53:25;;;;;;;11.35;5.80;;;;;;;24.34;65.74;92953.88;4753560;30;20044;-78
2023/06/21 08:55:51;;;;;;;8.23;5.68;;;;;;;24.41;72.90;92959.31;4753066;30;20150;-77
2023/06/21 08:58:22;;;;;;;9.90;5.40;;;;;;;24.38;71.99;92941.28;4752126;30;20032;-78
2023/06/21 09:00:53;;;;;;;14.05;6.72;;;;;;;23.97;78.55;92948.34;4762976;30;20058;-78
2023/06/21 09:03:25;;;;;;;10.18;5.72;;;;;;;24.15;77.42;92960.06;4772130;30;20040;-77
2023/06/21 09:06:03;;;;;;;9.07;6.03;;;;;;;24.16;77.30;92961.63;4769000;30;20457;-78
2023/06/21 09:08:31;;;;;;;10.50;5.30;;;;;;;23.90;68.38;92971.16;4770243;30;20048;-77
2023/06/21 09:10:57;;;;;;;10.80;5.80;;;;;;;23.90;69.71;92965.81;4768318;30;20020;-79
2023/06/21 09:13:28;;;;;;;10.85;6.07;;;;;;;23.98;72.24;92961.34;4765517;30;20039;-79
2023/06/21 09:15:55;;;;;;;12.88;6.38;;;;;;;23.56;78.03;92956.81;4759176;30;20035;-78
2023/06/21 09:18:22;;;;;;;9.82;6.15;;;;;;;23.65;75.50;92960.03;4770687;30;20076;-79
2023/06/21 09:20:49;;;;;;;18.27;6.78;;;;;;;23.57;75.21;92960.25;4763471;30;20422;-79
2023/06/21 09:23:15;;;;;;;10.18;5.43;;;;;;;23.84;66.17;92977.16;4761786;30;20048;-80
2023/06/21 09:25:43;;;;;;;10.95;5.95;;;;;;;24.17;72.87;92979.22;4756126;30;20056;-79
2023/06/21 09:28:08;;;;;;;10.95;5.57;;;;;;;24.38;69.92;92984.09;4761061;30;20473;-78
2023/06/21 09:30:34;;;;;;;10.68;5.40;;;;;;;24.52;66.97;92995.03;4736921;30;20049;-78
2023/06/21 09:32:59;;;;;;;11.93;6.13;;;;;;;24.86;71.31;93002.38;4752577;30;20380;-79
2023/06/21 09:35:25;;;;;;;12.07;5.40;;;;;;;25.03;64.19;92996.44;4761882;30;20109;-79
2023/06/21 09:37:50;;;;;;;11.65;5.55;;;;;;;25.12;61.79;92999.63;4769529;30;20039;-78
2023/06/21 09:40:16;;;;;;;9.38;5.22;;;;;;;25.26;63.98;93003.63;4753251;30;20450;-78
2023/06/21 09:42:45;;;;;;;9.48;5.05;;;;;;;25.26;58.97;93012.44;4765940;30;20047;-79
2023/06/21 09:45:12;;;;;;;8.43;4.25;;;;;;;25.44;55.91;93011.88;4770270;30;20044;-79
2023/06/21 09:47:41;;;;;;;11.07;5.88;;;;;;;25.55;63.47;93018.13;4754562;30;20066;-78
2023/06/21 09:50:08;;;;;;;10.50;4.93;;;;;;;25.53;52.85;93023.84;4763915;30;20102;-77
2023/06/21 09:52:34;;;;;;;14.65;6.45;;;;;;;25.78;54.51;93017.94;4770020;30;20099;-76
2023/06/21 09:55:00;;;;;;;9.65;5.03;;;;;;;25.83;54.14;93020.31;4785300;30;20035;-78
2023/06/21 09:57:30;;;;;;;8.52;5.10;;;;;;;25.59;53.98;93026.19;4768589;30;20056;-78
2023/06/21 09:59:57;;;;;;;11.93;5.30;;;;;;;25.67;59.14;93027.78;4758441;30;20036;-78
2023/06/21 10:02:23;;;;;;;8.55;5.78;;;;;;;25.41;66.91;93032.13;4778524;30;20432;-78
2023/06/21 10:04:54;;;;;;;9.98;5.15;;;;;;;25.47;57.40;93041.41;4779220;30;20048;-78
2023/06/21 10:07:21;;;;;;;8.52;4.97;;;;;;;25.11;56.60;93032.91;4774558;30;20048;-78
2023/06/21 10:09:48;;;;;;;9.98;5.20;;;;;;;24.63;60.55;93030.00;4773073;30;20093;-79
2023/06/21 10:12:14;;;;;;;8.00;5.03;;;;;;;25.08;61.13;93033.66;4774050;30;20051;-79
2023/06/21 10:14:41;;;;;;;10.13;5.22;;;;;;;25.13;56.82;93017.25;4772857;30;20418;-79
2023/06/21 10:17:07;;;;;;;10.68;5.20;;;;;;;25.05;59.66;93015.59;4756548;30;20427;-78
2023/06/21 10:19:35;;;;;;;7.50;4.93;;;;;;;25.16;60.18;93020.34;4761011;30;20044;-78
2023/06/21 10:22:08;;;;;;;9.90;5.28;;;;;;;25.43;60.44;93018.38;4755834;30;20357;-78
2023/06/21 10:24:46;;;;;;;14.48;5.82;;;;;;;24.84;66.61;93024.16;4768741;30;20051;-79
2023/06/21 10:27:12;;;;;;;10.38;5.85;;;;;;;24.72;66.20;93019.78;4773000;30;20132;-79
2023/06/21 10:29:41;;;;;;;12.70;5.68;;;;;;;24.85;69.33;93022.25;4756996;30;20055;-79
2023/06/21 10:32:07;;;;;;;9.68;5.80;;;;;;;25.11;69.83;93018.75;4755823;30;20044;-79
2023/06/21 10:34:55;;;;;;;9.65;5.38;;;;;;;25.09;68.51;93021.78;4756172;30;20040;-79
2023/06/21 10:37:35;;;;;;;9.65;5.78;;;;;;;24.96;67.16;93025.81;4757906;30;20050;-79
2023/06/21 10:40:06;;;;;;;10.30;5.32;;;;;;;25.24;65.15;93012.06;4746195;30;20031;-77
2023/06/21 10:42:32;;;;;;;10.33;5.90;;;;;;;25.05;66.96;92996.84;4764432;30;20105;-78
2023/06/21 10:45:00;;;;;;;9.38;6.28;;;;;;;24.73;68.02;92991.09;4754361;30;20278;-77
2023/06/21 10:47:26;;;;;;;12.63;5.60;;;;;;;24.59;66.00;92974.84;4772025;30;20051;-77
2023/06/21 10:49:58;;;;;;;9.60;5.93;;;;;;;24.33;69.55;92960.34;4751336;30;20055;-77
2023/06/21 10:52:26;;;;;;;11.05;5.50;;;;;;;24.44;67.73;92976.53;4769672;30;20059;-78
2023/06/21 10:54:55;;;;;;;10.65;5.65;;;;;;;24.34;68.15;92985.16;4772483;30;20046;-81
2023/06/21 10:57:23;;;;;;;12.05;5.65;;;;;;;24.27;64.92;92989.31;4777725;30;20040;-80
2023/06/21 10:59:49;;;;;;;10.18;5.03;;;;;;;24.30;66.67;93003.88;4769376;30;20047;-80
2023/06/21 11:02:15;;;;;;;10.48;5.75;;;;;;;24.39;66.84;93000.94;4757741;30;20495;-79
2023/06/21 11:05:16;;;;;;;9.70;5.80;;;;;;;24.76;65.13;93003.00;4758423;30;20564;-78
2023/06/21 11:08:10;;;;;;;11.82;5.45;;;;;;;24.78;64.33;93008.75;4758202;30;20044;-78
2023/06/21 11:10:43;;;;;;;9.23;5.50;;;;;;;24.75;65.86;92996.13;4756050;30;20072;-79
2023/06/21 11:13:10;;;;;;;10.50;6.00;;;;;;;24.57;67.75;92967.19;4756725;30;20075;-79
2023/06/21 11:15:45;;;;;;;12.35;5.45;;;;;;;24.72;65.35;92949.41;4757550;30;20039;-79
2023/06/21 11:18:18;;;;;;;10.10;5.57;;;;;;;24.88;66.87;92957.25;4756596;30;20052;-79
2023/06/21 11:20:48;;;;;;;9.95;5.60;;;;;;;25.01;66.82;92971.94;4764693;30;20131;-77
2023/06/21 11:23:16;;;;;;;10.07;5.95;;;;;;;25.10;66.86;92995.75;4756022;30;20039;-79
2023/06/21 11:26:01;;;;;;;8.75;5.53;;;;;;;24.96;65.05;92987.56;4755635;30;20036;-77
2023/06/21 11:28:32;;;;;;;10.00;6.13;;;;;;;24.77;68.28;92961.69;4755536;30;20042;-77
2023/06/21 11:31:03;;;;;;;11.27;5.65;;;;;;;24.71;69.70;92942.53;4756445;30;20031;-78